Loyal, WI

10:53 AM CDT on May 30, 2015 (GMT -0500)
Marshfield Municipal | | Change Station
CLOSE
Current Station
Airport
Location: Marshfield,
Elevation: 1276 ft
Nearby Weather Stations

Elev 1276 ft 44.64 °N, 90.19 °W | Updated 45 minutes ago

Overcast
Overcast
55 °F
Feels Like 55 °F
N
8
Wind Variable Wind from NNE

Today
High -- | Low -- °F
--% Chance of Precip.
Yesterday
High -- | Low -- °F
Precip. -- in
5:20 AM 8:38 PM
Waxing Gibbous, 91% visible
Pressure 30.13 in
Visibility 10.0 miles
Clouds Scattered Clouds 1200 ft
Overcast 1800 ft
Dew Point 48 °F
Humidity 77%
Rainfall 0.02 in
Snow Depth Not available.
UV 2 out of 12
Pollen 7.90 out of 12
Air Quality Not available.
Flu Activity Sporadic
SPECI KMFI 301508Z AUTO 03007KT 10SM SCT012 OVC018 13/09 A3013 RMK AO2 T01280089

More Conditions Fewer Conditions

Pressure 30.13 in
Visibility 10.0 miles
Clouds Scattered Clouds 1200 ft
Overcast 1800 ft
Dew Point 48 °F
Humidity 77%
Rainfall 0.02 in
Snow Depth Not available.
UV 2 out of 12
Pollen 7.90 out of 12
Air Quality Not available.
Flu Activity Sporadic
SPECI KMFI 301508Z AUTO 03007KT 10SM SCT012 OVC018 13/09 A3013 RMK AO2 T01280089

More Conditions Fewer Conditions

10-Day Weather Forecast

Almanac

Astronomy

May. 30, 2015 Rise Set
Actual Time
Civil Twilight
Nautical Twilight
Astronomical Twilight
Moon
Length of Visible Light
Length of Day
Tomorrow will be .
, % of the Moon is Illuminated

Today's Extremes

State Highs State Lows

Community

WunderPhotos

Upload Photos

1,825,549 photos uploaded!

WunderBlogs® & News

Nearby

Air Quality

  Air Quality AQ Index Pollutant
Not available.

Snow Depth

Station Depth Elevation

Earthquake Activity

City Distance Mag. Time & Date
Minimum magnitude displayed is 2.5.

Coastal Water Temperatures

Place Temperature

Stations

Nearby Weather Stations

Station Location Temp. Windchill Dew Point Humidity Wind Precip. Elev Updated Type